Time;durP1;ratioP1;P1;durP2;ratioP2;P2;SDS_P1;SDS_P2;PMS_P1;PMS_P2;Temp;Humidity;BMP_temperature;BMP_pressure;BME280_temperature;BME280_humidity;BME280_pressure;Samples;Min_cycle;Max_cycle;Signal;HPM_P1;HPM_P2
2024/02/15 00:01:04;;;;;;;30.05;17.98;;;;;;;;;;6160964;23;20084;-94
2024/02/15 00:03:31;;;;;;;38.58;20.90;;;;;;;;;;6160895;23;20009;-94
2024/02/15 00:05:57;;;;;;;32.28;20.33;;;;;;;;;;6160781;23;20012;-94
2024/02/15 00:08:26;;;;;;;43.13;24.08;;;;;;;;;;6160761;23;20012;-93
2024/02/15 00:10:53;;;;;;;41.30;24.20;;;;;;;;;;6161157;23;20008;-94
2024/02/15 00:13:21;;;;;;;42.63;24.73;;;;;;;;;;6136429;23;20020;-94
2024/02/15 00:15:48;;;;;;;48.78;27.17;;;;;;;;;;6161365;23;20016;-95
2024/02/15 00:18:14;;;;;;;47.15;26.38;;;;;;;;;;6160796;23;20001;-93
2024/02/15 00:20:40;;;;;;;44.90;25.48;;;;;;;;;;6161033;23;20427;-93
2024/02/15 00:23:07;;;;;;;45.80;24.23;;;;;;;;;;6161019;23;20012;-94
2024/02/15 00:25:33;;;;;;;36.83;19.13;;;;;;;;;;6160578;23;20001;-94
2024/02/15 00:28:00;;;;;;;34.22;20.65;;;;;;;;;;6160811;23;20017;-94
2024/02/15 00:30:27;;;;;;;57.20;32.78;;;;;;;;;;6160506;23;20005;-94
2024/02/15 00:32:53;;;;;;;63.63;35.10;;;;;;;;;;6160607;23;20016;-93
2024/02/15 00:35:19;;;;;;;66.72;35.35;;;;;;;;;;6187759;23;20001;-94
2024/02/15 00:37:45;;;;;;;59.38;32.97;;;;;;;;;;6160885;23;20043;-94
2024/02/15 00:40:12;;;;;;;57.25;31.00;;;;;;;;;;6160873;23;20011;-95
2024/02/15 00:42:39;;;;;;;66.90;34.25;;;;;;;;;;6160798;23;20009;-96
2024/02/15 00:45:05;;;;;;;49.67;29.52;;;;;;;;;;6160258;23;20009;-94
2024/02/15 00:47:32;;;;;;;56.17;30.83;;;;;;;;;;6161472;23;20135;-95
2024/02/15 00:49:58;;;;;;;57.80;32.35;;;;;;;;;;6161959;23;20013;-96
2024/02/15 00:52:25;;;;;;;57.70;33.13;;;;;;;;;;6162068;23;20427;-96
2024/02/15 00:54:54;;;;;;;53.38;29.20;;;;;;;;;;6187771;23;20013;-95
2024/02/15 00:57:20;;;;;;;55.05;30.05;;;;;;;;;;6160981;23;20009;-95
2024/02/15 00:59:46;;;;;;;58.00;30.05;;;;;;;;;;6161082;23;20044;-96
2024/02/15 01:02:12;;;;;;;51.75;29.23;;;;;;;;;;6160836;23;20055;-96
2024/02/15 01:04:38;;;;;;;49.47;27.85;;;;;;;;;;6160650;23;20005;-95
2024/02/15 01:07:04;;;;;;;54.38;29.02;;;;;;;;;;6160752;23;19997;-96
2024/02/15 01:09:30;;;;;;;64.90;33.25;;;;;;;;;;6160436;23;20016;-96
2024/02/15 01:11:57;;;;;;;55.63;30.58;;;;;;;;;;6161064;23;20024;-95
2024/02/15 01:14:23;;;;;;;54.47;30.73;;;;;;;;;;6160497;23;20079;-96
2024/02/15 01:16:49;;;;;;;64.18;32.40;;;;;;;;;;6162430;23;20431;-94
2024/02/15 01:19:15;;;;;;;61.95;32.30;;;;;;;;;;6162789;23;20005;-94
2024/02/15 01:21:43;;;;;;;60.88;31.50;;;;;;;;;;6162556;23;20001;-94
2024/02/15 01:24:09;;;;;;;56.28;31.13;;;;;;;;;;6162676;23;20502;-96
2024/02/15 01:26:35;;;;;;;59.60;31.75;;;;;;;;;;6163468;23;20005;-94
2024/02/15 01:29:03;;;;;;;62.13;31.77;;;;;;;;;;6162970;23;20320;-95
2024/02/15 01:31:29;;;;;;;69.70;33.33;;;;;;;;;;6162715;23;20005;-94
2024/02/15 01:33:55;;;;;;;84.05;38.55;;;;;;;;;;6174130;23;20060;-92
2024/02/15 01:36:21;;;;;;;73.47;35.25;;;;;;;;;;6190045;23;20012;-95
2024/02/15 01:38:47;;;;;;;43.17;23.92;;;;;;;;;;6175706;23;20009;-96
2024/02/15 01:41:13;;;;;;;59.95;31.50;;;;;;;;;;6162571;23;20012;-96
2024/02/15 01:43:44;;;;;;;61.25;31.52;;;;;;;;;;6162467;23;20044;-93
2024/02/15 01:46:11;;;;;;;58.00;30.33;;;;;;;;;;6157173;23;20017;-95
2024/02/15 01:48:38;;;;;;;58.78;30.00;;;;;;;;;;6157332;23;20040;-92
2024/02/15 01:51:05;;;;;;;57.58;28.08;;;;;;;;;;6157304;23;20028;-95
2024/02/15 01:53:32;;;;;;;55.03;28.63;;;;;;;;;;6157441;23;20024;-94
2024/02/15 01:55:59;;;;;;;39.13;23.75;;;;;;;;;;6156912;23;20005;-94
2024/02/15 01:58:26;;;;;;;52.33;28.58;;;;;;;;;;6157693;23;20085;-93
2024/02/15 02:00:53;;;;;;;51.75;28.65;;;;;;;;;;6157574;23;20005;-93
2024/02/15 02:03:21;;;;;;;52.67;27.50;;;;;;;;;;6157513;23;20002;-94
2024/02/15 02:05:48;;;;;;;57.70;29.83;;;;;;;;;;6156988;23;20010;-95
2024/02/15 02:08:14;;;;;;;59.35;30.15;;;;;;;;;;6157153;23;20012;-96
2024/02/15 02:10:40;;;;;;;56.55;29.20;;;;;;;;;;6157443;23;20059;-94
2024/02/15 02:13:06;;;;;;;52.17;29.00;;;;;;;;;;6157248;23;20021;-95
2024/02/15 02:15:33;;;;;;;59.00;29.98;;;;;;;;;;6156831;23;20398;-94
2024/02/15 02:18:02;;;;;;;48.45;26.90;;;;;;;;;;6157557;23;20001;-94
2024/02/15 02:20:28;;;;;;;42.50;25.17;;;;;;;;;;6157453;23;20064;-94
2024/02/15 02:23:00;;;;;;;54.60;27.60;;;;;;;;;;6157251;23;20438;-94
2024/02/15 02:25:26;;;;;;;45.65;26.92;;;;;;;;;;6157254;23;20013;-94
2024/02/15 02:27:52;;;;;;;50.30;26.70;;;;;;;;;;6156105;23;20009;-94
2024/02/15 02:30:18;;;;;;;39.80;24.55;;;;;;;;;;6157197;23;20012;-94
2024/02/15 02:32:46;;;;;;;42.03;25.08;;;;;;;;;;6156782;23;20056;-93
2024/02/15 02:35:13;;;;;;;46.65;26.02;;;;;;;;;;6156781;23;20096;-94
2024/02/15 02:37:39;;;;;;;39.15;23.92;;;;;;;;;;6156711;23;20013;-93
2024/02/15 02:40:08;;;;;;;45.13;25.67;;;;;;;;;;6156761;23;20013;-93
2024/02/15 02:42:34;;;;;;;43.88;26.02;;;;;;;;;;6156670;23;20006;-95
2024/02/15 02:45:00;;;;;;;49.10;27.63;;;;;;;;;;6159195;23;20017;-92
2024/02/15 02:47:26;;;;;;;43.90;26.55;;;;;;;;;;6162181;23;20515;-95
2024/02/15 02:49:52;;;;;;;47.40;25.83;;;;;;;;;;6161591;23;20095;-93
2024/02/15 02:52:18;;;;;;;42.88;24.50;;;;;;;;;;6161743;23;20085;-95
2024/02/15 02:54:45;;;;;;;43.72;25.08;;;;;;;;;;6161610;23;20020;-94
2024/02/15 02:57:11;;;;;;;30.05;19.65;;;;;;;;;;6161713;23;20017;-93
2024/02/15 02:59:39;;;;;;;30.60;19.08;;;;;;;;;;6161628;23;20041;-94
2024/02/15 03:02:07;;;;;;;30.38;18.58;;;;;;;;;;6162179;23;20031;-95
2024/02/15 03:04:34;;;;;;;39.13;22.80;;;;;;;;;;6161593;23;20020;-96
2024/02/15 03:07:00;;;;;;;38.95;21.95;;;;;;;;;;6161824;23;20005;-94
2024/02/15 03:09:29;;;;;;;41.13;24.00;;;;;;;;;;6162604;23;20028;-94
2024/02/15 03:11:56;;;;;;;41.10;24.10;;;;;;;;;;6162182;23;20088;-95
2024/02/15 03:14:22;;;;;;;40.15;21.40;;;;;;;;;;6162563;23;20013;-95
2024/02/15 03:16:49;;;;;;;41.47;25.20;;;;;;;;;;6184289;23;20009;-92
2024/02/15 03:19:15;;;;;;;42.05;22.98;;;;;;;;;;6189192;23;20017;-94
2024/02/15 03:21:46;;;;;;;42.08;23.63;;;;;;;;;;6162189;23;20096;-95
2024/02/15 03:24:12;;;;;;;41.65;25.60;;;;;;;;;;6161542;23;20032;-96
2024/02/15 03:26:40;;;;;;;49.15;27.13;;;;;;;;;;6161733;23;20441;-95
2024/02/15 03:29:09;;;;;;;50.50;27.77;;;;;;;;;;6161219;23;20013;-95
2024/02/15 03:31:37;;;;;;;44.83;26.13;;;;;;;;;;6161819;23;20009;-94
2024/02/15 03:34:06;;;;;;;43.13;26.48;;;;;;;;;;6161179;23;20064;-95
2024/02/15 03:36:33;;;;;;;45.67;26.50;;;;;;;;;;6161240;23;20092;-96
2024/02/15 03:38:59;;;;;;;37.97;20.90;;;;;;;;;;6161457;23;20005;-95
2024/02/15 03:41:30;;;;;;;36.22;23.25;;;;;;;;;;6161204;23;20005;-94
2024/02/15 03:43:58;;;;;;;43.53;25.40;;;;;;;;;;6161377;23;20005;-93
2024/02/15 03:46:25;;;;;;;42.17;25.02;;;;;;;;;;6160689;23;20119;-93
2024/02/15 03:48:51;;;;;;;43.28;26.30;;;;;;;;;;6160735;23;20059;-94
2024/02/15 03:51:23;;;;;;;40.95;23.63;;;;;;;;;;6160890;23;20012;-93
2024/02/15 03:53:49;;;;;;;45.47;25.52;;;;;;;;;;6160852;23;20013;-93
2024/02/15 03:56:15;;;;;;;44.97;25.60;;;;;;;;;;6161033;23;20005;-92
2024/02/15 03:58:42;;;;;;;46.58;25.88;;;;;;;;;;6162111;23;20028;-94
2024/02/15 04:01:09;;;;;;;51.95;28.80;;;;;;;;;;6161401;23;20008;-94
2024/02/15 04:03:35;;;;;;;49.83;27.55;;;;;;;;;;6161020;23;20012;-94
2024/02/15 04:06:02;;;;;;;49.22;27.48;;;;;;;;;;6161463;23;20001;-93
2024/02/15 04:08:28;;;;;;;45.70;26.65;;;;;;;;;;6160902;23;20327;-94
2024/02/15 04:10:54;;;;;;;50.65;27.45;;;;;;;;;;6160779;23;20057;-92
2024/02/15 04:13:20;;;;;;;51.22;27.77;;;;;;;;;;6186656;23;20079;-94
2024/02/15 04:15:49;;;;;;;51.55;28.55;;;;;;;;;;6160424;23;20005;-95
2024/02/15 04:18:15;;;;;;;36.85;22.17;;;;;;;;;;6160989;23;20005;-96
2024/02/15 04:20:46;;;;;;;51.47;25.02;;;;;;;;;;6160613;23;20016;-94
2024/02/15 04:23:13;;;;;;;46.40;26.17;;;;;;;;;;6160560;23;20035;-94
2024/02/15 04:25:40;;;;;;;47.30;27.70;;;;;;;;;;6160832;23;20008;-94
2024/02/15 04:28:08;;;;;;;47.65;27.20;;;;;;;;;;6161146;23;20009;-94
2024/02/15 04:30:38;;;;;;;48.33;26.98;;;;;;;;;;6161282;23;20001;-94
2024/02/15 04:33:05;;;;;;;53.45;27.42;;;;;;;;;;6161069;23;20009;-95
2024/02/15 04:35:31;;;;;;;51.88;27.63;;;;;;;;;;6160860;23;20005;-95
2024/02/15 04:37:57;;;;;;;41.47;25.02;;;;;;;;;;6161498;23;20001;-94
2024/02/15 04:40:23;;;;;;;44.70;25.38;;;;;;;;;;6163768;23;20004;-95
2024/02/15 04:42:49;;;;;;;48.53;26.58;;;;;;;;;;6161432;23;20005;-95
2024/02/15 04:45:16;;;;;;;44.42;25.45;;;;;;;;;;6161350;23;20154;-95
2024/02/15 04:47:45;;;;;;;53.22;28.25;;;;;;;;;;6164057;23;20005;-95
2024/02/15 04:50:11;;;;;;;46.17;25.88;;;;;;;;;;6164065;23;20434;-94
2024/02/15 04:52:38;;;;;;;46.40;25.52;;;;;;;;;;6161350;23;20421;-95
2024/02/15 04:55:05;;;;;;;50.65;27.83;;;;;;;;;;6160901;23;20020;-93
2024/02/15 04:57:33;;;;;;;52.97;27.98;;;;;;;;;;6172305;23;19989;-93
2024/02/15 04:59:59;;;;;;;50.83;27.25;;;;;;;;;;6188194;23;20055;-93
2024/02/15 05:02:27;;;;;;;49.50;26.52;;;;;;;;;;6173126;23;20010;-96
2024/02/15 05:04:56;;;;;;;53.78;28.92;;;;;;;;;;6160462;23;20051;-94
2024/02/15 05:07:22;;;;;;;56.58;29.27;;;;;;;;;;6160943;23;20465;-94
2024/02/15 05:09:49;;;;;;;53.42;29.00;;;;;;;;;;6160446;23;20048;-95
2024/02/15 05:12:25;;;;;;;55.60;30.88;;;;;;;;;;6160725;23;20044;-95
2024/02/15 05:14:53;;;;;;;53.25;29.50;;;;;;;;;;6182618;23;20020;-95
2024/02/15 05:17:19;;;;;;;51.95;28.17;;;;;;;;;;6160456;23;20005;-96
2024/02/15 05:19:45;;;;;;;55.83;29.27;;;;;;;;;;6160763;23;20450;-96
2024/02/15 05:22:11;;;;;;;52.10;28.88;;;;;;;;;;6160585;23;20012;-95
2024/02/15 05:24:40;;;;;;;55.03;30.70;;;;;;;;;;6160360;23;20005;-96
2024/02/15 05:27:06;;;;;;;51.55;28.35;;;;;;;;;;6160409;23;20009;-96
2024/02/15 05:29:36;;;;;;;53.75;30.48;;;;;;;;;;6160583;23;20069;-95
2024/02/15 05:32:02;;;;;;;57.67;31.08;;;;;;;;;;6160533;23;20060;-94
2024/02/15 05:34:31;;;;;;;55.88;30.67;;;;;;;;;;6160159;23;20013;-95
2024/02/15 05:36:57;;;;;;;59.90;30.10;;;;;;;;;;6160202;23;20028;-94
2024/02/15 05:39:23;;;;;;;52.20;28.98;;;;;;;;;;6161218;23;20009;-94
2024/02/15 05:41:49;;;;;;;50.83;27.83;;;;;;;;;;6161008;23;20008;-95
2024/02/15 05:44:20;;;;;;;51.88;29.10;;;;;;;;;;6161303;23;20197;-95
2024/02/15 05:46:47;;;;;;;52.95;28.45;;;;;;;;;;6160655;23;20443;-95
2024/02/15 05:49:17;;;;;;;48.20;26.30;;;;;;;;;;6160555;23;20033;-95
2024/02/15 05:51:43;;;;;;;51.72;28.52;;;;;;;;;;6160584;23;20024;-94
2024/02/15 05:54:09;;;;;;;49.95;28.70;;;;;;;;;;6160358;23;20438;-95
2024/02/15 05:56:35;;;;;;;45.38;26.75;;;;;;;;;;6160437;23;20001;-95
2024/02/15 05:59:09;;;;;;;35.63;23.35;;;;;;;;;;6160357;23;20009;-94
2024/02/15 06:01:36;;;;;;;49.15;27.52;;;;;;;;;;6160911;23;20044;-95
2024/02/15 06:04:04;;;;;;;48.00;28.40;;;;;;;;;;6161742;23;20005;-92
2024/02/15 06:06:30;;;;;;;48.15;27.60;;;;;;;;;;6161970;23;20025;-93
2024/02/15 06:08:59;;;;;;;48.50;28.05;;;;;;;;;;6162736;23;20009;-91
2024/02/15 06:11:25;;;;;;;51.42;30.55;;;;;;;;;;6162411;23;20566;-91
2024/02/15 06:13:52;;;;;;;48.88;27.52;;;;;;;;;;6162379;23;20016;-94
2024/02/15 06:16:18;;;;;;;46.45;26.95;;;;;;;;;;6162500;23;20017;-92
2024/02/15 06:18:44;;;;;;;46.30;26.35;;;;;;;;;;6162470;23;20072;-92
2024/02/15 06:21:10;;;;;;;42.13;25.23;;;;;;;;;;6162567;23;20055;-93
2024/02/15 06:23:37;;;;;;;47.20;26.08;;;;;;;;;;6162341;23;20013;-92
2024/02/15 06:26:03;;;;;;;41.97;26.48;;;;;;;;;;6188622;23;20001;-93
2024/02/15 06:39:44;;;;;;;43.03;25.15;;;;;;;;;;6196529;23;20008;-89
2024/02/15 06:42:16;;;;;;;45.25;25.38;;;;;;;;;;6189286;23;19989;-90
2024/02/15 06:44:46;;;;;;;43.00;25.08;;;;;;;;;;6176606;23;20009;-90
2024/02/15 06:47:12;;;;;;;37.00;22.27;;;;;;;;;;6156303;23;20013;-92
2024/02/15 06:49:42;;;;;;;37.70;23.17;;;;;;;;;;6156577;23;20067;-91
2024/02/15 06:52:09;;;;;;;37.83;23.90;;;;;;;;;;6156789;23;20016;-91
2024/02/15 06:54:35;;;;;;;42.65;24.23;;;;;;;;;;6157036;23;20018;-92
2024/02/15 06:57:02;;;;;;;38.75;23.00;;;;;;;;;;6156899;23;20088;-91
2024/02/15 06:59:28;;;;;;;44.38;25.10;;;;;;;;;;6156897;23;20010;-91
2024/02/15 07:01:55;;;;;;;45.20;25.95;;;;;;;;;;6156299;23;20142;-91
2024/02/15 07:04:21;;;;;;;45.17;25.23;;;;;;;;;;6156676;23;20439;-94
2024/02/15 07:06:49;;;;;;;37.60;22.67;;;;;;;;;;6156813;23;20005;-94
2024/02/15 07:09:17;;;;;;;39.15;22.75;;;;;;;;;;6157134;23;20383;-93
2024/02/15 07:11:43;;;;;;;38.78;23.02;;;;;;;;;;6156549;23;20427;-94
2024/02/15 07:14:10;;;;;;;39.00;24.55;;;;;;;;;;6156227;23;20067;-92
2024/02/15 07:16:36;;;;;;;40.70;23.75;;;;;;;;;;6156999;23;20100;-93
2024/02/15 07:19:03;;;;;;;39.53;23.60;;;;;;;;;;6157139;23;20013;-93
2024/02/15 07:21:31;;;;;;;39.25;23.02;;;;;;;;;;6156649;23;20451;-92
2024/02/15 07:23:57;;;;;;;39.05;24.25;;;;;;;;;;6156914;23;20411;-92
2024/02/15 07:26:27;;;;;;;39.38;23.17;;;;;;;;;;6156058;23;20082;-92
2024/02/15 07:28:57;;;;;;;35.38;21.80;;;;;;;;;;6156596;23;20056;-90
2024/02/15 07:31:23;;;;;;;42.75;22.63;;;;;;;;;;6156427;23;20001;-91
2024/02/15 07:33:51;;;;;;;39.28;21.50;;;;;;;;;;6157286;23;20332;-93
2024/02/15 07:36:24;;;;;;;48.67;28.45;;;;;;;;;;6156745;23;20051;-91
2024/02/15 07:38:53;;;;;;;43.25;26.23;;;;;;;;;;6156262;23;20005;-91
2024/02/15 07:41:24;;;;;;;43.72;24.70;;;;;;;;;;6156158;23;20033;-90
2024/02/15 07:43:50;;;;;;;41.65;24.30;;;;;;;;;;6155983;23;20097;-91
2024/02/15 07:46:17;;;;;;;38.22;23.25;;;;;;;;;;6155659;23;20109;-91
2024/02/15 07:48:46;;;;;;;45.53;26.95;;;;;;;;;;6155792;23;20005;-91
2024/02/15 07:51:25;;;;;;;39.40;26.23;;;;;;;;;;6157075;23;20088;-96
2024/02/15 07:53:54;;;;;;;39.10;23.25;;;;;;;;;;6157193;23;20014;-95
2024/02/15 07:56:20;;;;;;;39.00;25.65;;;;;;;;;;6156938;23;20084;-94
2024/02/15 07:58:51;;;;;;;36.35;24.17;;;;;;;;;;6156854;23;20344;-95
2024/02/15 08:01:20;;;;;;;39.75;24.10;;;;;;;;;;6156854;23;20006;-95
2024/02/15 08:03:47;;;;;;;33.10;21.77;;;;;;;;;;6156857;23;20009;-94
2024/02/15 08:06:14;;;;;;;36.20;22.73;;;;;;;;;;6156656;23;20001;-96
2024/02/15 08:08:41;;;;;;;31.17;20.80;;;;;;;;;;6156769;23;20005;-95
2024/02/15 08:11:14;;;;;;;33.47;22.05;;;;;;;;;;6156938;23;20429;-96
2024/02/15 08:16:51;;;;;;;27.48;19.52;;;;;;;;;;6144000;23;20017;-96
2024/02/15 08:19:17;;;;;;;28.65;19.02;;;;;;;;;;6157410;23;20006;-93
2024/02/15 08:21:46;;;;;;;27.02;17.10;;;;;;;;;;6156939;23;20088;-91
2024/02/15 08:24:12;;;;;;;27.45;18.65;;;;;;;;;;6180910;23;20073;-89
2024/02/15 08:26:39;;;;;;;25.23;17.75;;;;;;;;;;6184209;23;20005;-89
2024/02/15 08:29:13;;;;;;;27.35;17.35;;;;;;;;;;6157524;23;20029;-93
2024/02/15 08:31:41;;;;;;;26.63;18.83;;;;;;;;;;6155995;23;20006;-94
2024/02/15 08:34:10;;;;;;;27.58;17.67;;;;;;;;;;6157129;23;20013;-92
2024/02/15 08:36:36;;;;;;;27.60;17.52;;;;;;;;;;6156008;23;20349;-93
2024/02/15 08:39:04;;;;;;;28.38;18.17;;;;;;;;;;6155541;23;20016;-92
2024/02/15 08:41:30;;;;;;;27.60;18.23;;;;;;;;;;6155776;23;20498;-91
2024/02/15 08:43:58;;;;;;;29.73;21.95;;;;;;;;;;6155678;23;20017;-92
2024/02/15 08:46:26;;;;;;;27.60;19.55;;;;;;;;;;6155997;23;20424;-91
2024/02/15 08:48:52;;;;;;;26.40;18.15;;;;;;;;;;6155509;23;20008;-90
2024/02/15 08:51:20;;;;;;;27.27;17.98;;;;;;;;;;6155526;23;20502;-91
2024/02/15 08:53:47;;;;;;;28.00;17.15;;;;;;;;;;6155655;23;20076;-91
2024/02/15 08:56:13;;;;;;;26.95;18.38;;;;;;;;;;6156167;23;20012;-91
2024/02/15 08:58:40;;;;;;;27.77;19.08;;;;;;;;;;6156337;23;20759;-91
2024/02/15 09:01:08;;;;;;;28.70;18.85;;;;;;;;;;6155926;23;20092;-92
2024/02/15 09:03:34;;;;;;;26.58;18.55;;;;;;;;;;6155651;23;20335;-91
2024/02/15 09:06:03;;;;;;;31.60;20.77;;;;;;;;;;6156102;23;20321;-92
2024/02/15 09:08:30;;;;;;;33.88;19.63;;;;;;;;;;6155706;23;20001;-92
2024/02/15 09:10:58;;;;;;;30.67;18.90;;;;;;;;;;6155727;23;20009;-92
2024/02/15 09:13:24;;;;;;;31.75;20.40;;;;;;;;;;6155686;23;20013;-92
2024/02/15 09:15:50;;;;;;;28.38;21.02;;;;;;;;;;6155284;23;20033;-92
2024/02/15 09:18:22;;;;;;;29.80;20.95;;;;;;;;;;6155481;23;20006;-91
2024/02/15 09:20:48;;;;;;;31.98;21.42;;;;;;;;;;6155743;23;20005;-92
2024/02/15 09:23:15;;;;;;;26.63;17.77;;;;;;;;;;6155714;23;20013;-91
2024/02/15 09:25:44;;;;;;;28.63;18.13;;;;;;;;;;6155250;23;20092;-91
2024/02/15 09:28:10;;;;;;;26.42;18.60;;;;;;;;;;6155564;23;20048;-92
2024/02/15 09:30:37;;;;;;;32.10;19.60;;;;;;;;;;6155232;23;20605;-91
2024/02/15 09:33:04;;;;;;;26.73;18.83;;;;;;;;;;6155599;23;20033;-91
2024/02/15 09:35:31;;;;;;;24.80;18.13;;;;;;;;;;6156359;23;20064;-90
2024/02/15 09:37:57;;;;;;;24.77;17.17;;;;;;;;;;6156812;23;20001;-91
2024/02/15 09:40:26;;;;;;;22.55;15.68;;;;;;;;;;6157930;23;20009;-92
2024/02/15 09:42:53;;;;;;;25.75;19.55;;;;;;;;;;6157541;23;20013;-91
2024/02/15 09:45:20;;;;;;;24.42;17.92;;;;;;;;;;6157027;23;20089;-92
2024/02/15 09:47:50;;;;;;;22.70;18.83;;;;;;;;;;6157266;23;20013;-91
2024/02/15 09:50:17;;;;;;;23.00;19.50;;;;;;;;;;6157673;23;20013;-93
2024/02/15 09:52:46;;;;;;;24.35;16.90;;;;;;;;;;6157646;23;20085;-93
2024/02/15 09:55:13;;;;;;;27.25;20.92;;;;;;;;;;6157563;23;20017;-91
2024/02/15 09:57:39;;;;;;;25.83;22.23;;;;;;;;;;6158302;23;20009;-91
2024/02/15 10:00:13;;;;;;;27.48;20.17;;;;;;;;;;6157999;23;20553;-93
2024/02/15 10:02:39;;;;;;;26.08;20.83;;;;;;;;;;6157989;23;20009;-92
2024/02/15 10:05:06;;;;;;;25.05;20.55;;;;;;;;;;6157634;23;20006;-93
2024/02/15 10:07:32;;;;;;;24.10;18.88;;;;;;;;;;6176223;23;20021;-91
2024/02/15 10:10:16;;;;;;;25.42;17.92;;;;;;;;;;6184759;23;20013;-90
2024/02/15 10:12:43;;;;;;;25.23;19.08;;;;;;;;;;6161404;23;20104;-91
2024/02/15 10:15:10;;;;;;;26.45;18.00;;;;;;;;;;6157739;23;20013;-91
2024/02/15 10:17:36;;;;;;;25.75;17.55;;;;;;;;;;6157918;23;20029;-91
2024/02/15 10:20:06;;;;;;;26.38;18.33;;;;;;;;;;6157102;23;20048;-91
2024/02/15 10:22:33;;;;;;;25.13;18.48;;;;;;;;;;6157499;23;20001;-92
2024/02/15 10:25:15;;;;;;;27.30;19.17;;;;;;;;;;6157709;23;20376;-92
2024/02/15 10:27:41;;;;;;;31.20;21.50;;;;;;;;;;6157345;23;20006;-92
2024/02/15 10:30:17;;;;;;;29.20;18.95;;;;;;;;;;6156829;23;20002;-92
2024/02/15 10:32:44;;;;;;;27.27;18.75;;;;;;;;;;6156936;23;20005;-91
2024/02/15 10:35:15;;;;;;;26.20;20.60;;;;;;;;;;6157258;23;20040;-92
2024/02/15 10:37:42;;;;;;;29.55;20.45;;;;;;;;;;6157620;23;20428;-92
2024/02/15 10:40:13;;;;;;;25.40;17.65;;;;;;;;;;6157336;23;20380;-92
2024/02/15 10:42:45;;;;;;;24.20;18.35;;;;;;;;;;6157066;23;20001;-92
2024/02/15 10:45:14;;;;;;;29.23;19.80;;;;;;;;;;6161687;23;20117;-91
2024/02/15 10:47:40;;;;;;;30.48;22.73;;;;;;;;;;6162008;23;20005;-93
2024/02/15 10:50:07;;;;;;;26.23;19.33;;;;;;;;;;6161333;23;20040;-91
2024/02/15 10:52:35;;;;;;;27.27;19.60;;;;;;;;;;6161938;23;20100;-92
2024/02/15 10:55:08;;;;;;;26.83;19.70;;;;;;;;;;6161818;23;20017;-92
2024/02/15 10:57:38;;;;;;;27.90;20.70;;;;;;;;;;6161768;23;20012;-92
2024/02/15 11:00:13;;;;;;;30.70;21.42;;;;;;;;;;6137725;23;20009;-92
2024/02/15 11:02:43;;;;;;;28.95;21.33;;;;;;;;;;6157970;23;20079;-91
2024/02/15 11:05:10;;;;;;;27.00;19.85;;;;;;;;;;6161659;23;20431;-91
2024/02/15 11:07:39;;;;;;;27.75;21.08;;;;;;;;;;6161959;23;20013;-91
2024/02/15 11:10:08;;;;;;;28.50;20.77;;;;;;;;;;6161661;23;20083;-91
2024/02/15 11:12:34;;;;;;;26.88;20.33;;;;;;;;;;6161791;23;20032;-91
2024/02/15 11:15:00;;;;;;;25.55;19.52;;;;;;;;;;6161545;23;20330;-91
2024/02/15 11:17:36;;;;;;;27.27;19.05;;;;;;;;;;6161197;23;20009;-91
2024/02/15 11:20:08;;;;;;;30.35;20.35;;;;;;;;;;6161241;23;20009;-92
2024/02/15 11:22:37;;;;;;;30.95;20.50;;;;;;;;;;6162184;23;20012;-92
2024/02/15 11:25:15;;;;;;;28.90;20.50;;;;;;;;;;6161640;23;20005;-91
2024/02/15 11:27:41;;;;;;;28.95;20.73;;;;;;;;;;6161975;23;20015;-91
2024/02/15 11:30:12;;;;;;;29.88;20.08;;;;;;;;;;6161544;23;20063;-90
2024/02/15 11:32:53;;;;;;;28.35;18.65;;;;;;;;;;6161591;23;20040;-91
2024/02/15 11:35:30;;;;;;;24.95;17.73;;;;;;;;;;6161291;23;20100;-92
2024/02/15 11:40:55;;;;;;;26.20;18.92;;;;;;;;;;6179844;23;20009;-91
2024/02/15 11:43:49;;;;;;;29.30;20.67;;;;;;;;;;6161797;23;20130;-91
2024/02/15 11:46:18;;;;;;;29.45;19.25;;;;;;;;;;6161494;23;20013;-91
2024/02/15 11:48:44;;;;;;;30.13;20.10;;;;;;;;;;6161837;23;20059;-90
2024/02/15 11:51:11;;;;;;;28.85;20.88;;;;;;;;;;6162146;23;20430;-90
2024/02/15 11:53:40;;;;;;;26.73;19.92;;;;;;;;;;6185403;23;20012;-92
2024/02/15 11:56:09;;;;;;;29.88;22.15;;;;;;;;;;6188951;23;20045;-91
2024/02/15 11:58:52;;;;;;;28.63;19.50;;;;;;;;;;6163308;23;20011;-91
2024/02/15 12:20:39;;;;;;;30.23;20.08;;;;;;;;;;6188035;23;20457;-91
2024/02/15 12:23:06;;;;;;;29.52;18.50;;;;;;;;;;6161974;23;20001;-91
2024/02/15 12:25:33;;;;;;;25.52;17.15;;;;;;;;;;6162418;23;20009;-90
2024/02/15 12:28:01;;;;;;;26.17;18.33;;;;;;;;;;6162245;23;20001;-91
2024/02/15 12:30:33;;;;;;;31.13;19.15;;;;;;;;;;6161485;23;20009;-90
2024/02/15 12:33:12;;;;;;;22.50;17.23;;;;;;;;;;6162813;23;20430;-91
2024/02/15 12:35:38;;;;;;;22.77;15.73;;;;;;;;;;6161227;23;20009;-90
2024/02/15 12:38:08;;;;;;;23.73;16.58;;;;;;;;;;6161229;23;20039;-90
2024/02/15 12:40:38;;;;;;;24.30;16.60;;;;;;;;;;6161430;23;20423;-92
2024/02/15 12:43:08;;;;;;;24.50;17.17;;;;;;;;;;6161059;23;20001;-91
2024/02/15 12:45:39;;;;;;;20.55;15.85;;;;;;;;;;6160770;23;20056;-92
2024/02/15 12:48:05;;;;;;;28.00;17.02;;;;;;;;;;6161331;23;20055;-89
2024/02/15 12:50:32;;;;;;;19.98;14.68;;;;;;;;;;6161518;23;20009;-89
2024/02/15 12:53:02;;;;;;;20.77;16.25;;;;;;;;;;6160687;23;20120;-89
2024/02/15 12:55:34;;;;;;;23.67;15.80;;;;;;;;;;6161076;23;20020;-92
2024/02/15 12:58:03;;;;;;;26.05;19.70;;;;;;;;;;6161403;23;20013;-91
2024/02/15 13:00:31;;;;;;;26.02;15.93;;;;;;;;;;6161518;23;20027;-91
2024/02/15 13:02:58;;;;;;;24.77;17.67;;;;;;;;;;6160947;23;20410;-92
2024/02/15 13:05:26;;;;;;;25.10;14.25;;;;;;;;;;6161060;23;20011;-93
2024/02/15 13:07:54;;;;;;;22.42;13.98;;;;;;;;;;6160187;23;20001;-93
2024/02/15 13:10:22;;;;;;;18.92;14.43;;;;;;;;;;6162741;23;20009;-92
2024/02/15 13:12:48;;;;;;;22.67;13.30;;;;;;;;;;6161151;23;20025;-92
2024/02/15 13:15:17;;;;;;;21.35;14.52;;;;;;;;;;6139646;23;20024;-92
2024/02/15 13:17:48;;;;;;;20.58;15.15;;;;;;;;;;6161606;23;20005;-92
2024/02/15 13:20:15;;;;;;;26.10;17.08;;;;;;;;;;6165459;23;20005;-91
2024/02/15 13:22:43;;;;;;;25.85;17.52;;;;;;;;;;6162404;23;20639;-91
2024/02/15 13:25:10;;;;;;;24.50;17.35;;;;;;;;;;6162650;23;20005;-91
2024/02/15 13:27:38;;;;;;;24.20;18.42;;;;;;;;;;6164571;23;20017;-90
2024/02/15 13:30:08;;;;;;;24.83;15.77;;;;;;;;;;6163992;23;20419;-90
2024/02/15 13:32:35;;;;;;;23.02;15.15;;;;;;;;;;6163952;23;20105;-89
2024/02/15 13:35:07;;;;;;;20.95;15.63;;;;;;;;;;6162659;23;20021;-90
2024/02/15 13:37:33;;;;;;;18.95;13.23;;;;;;;;;;6174964;23;19996;-92
2024/02/15 13:39:59;;;;;;;21.33;14.43;;;;;;;;;;6187578;23;19993;-90
2024/02/15 13:42:26;;;;;;;21.73;15.50;;;;;;;;;;6172746;23;20009;-91
2024/02/15 13:44:52;;;;;;;24.00;16.65;;;;;;;;;;6160926;23;20009;-92
2024/02/15 13:47:18;;;;;;;22.58;16.52;;;;;;;;;;6160766;23;20434;-91
2024/02/15 13:49:45;;;;;;;26.33;17.88;;;;;;;;;;6160463;23;20378;-91
2024/02/15 13:52:11;;;;;;;27.40;16.40;;;;;;;;;;6160609;23;20419;-91
2024/02/15 13:54:38;;;;;;;26.58;17.83;;;;;;;;;;6161290;23;20017;-92
2024/02/15 13:57:04;;;;;;;27.08;17.35;;;;;;;;;;6161063;23;20009;-92
2024/02/15 13:59:30;;;;;;;23.98;16.95;;;;;;;;;;6160298;23;20492;-92
2024/02/15 14:01:56;;;;;;;26.83;18.05;;;;;;;;;;6161571;23;20009;-92
2024/02/15 14:04:22;;;;;;;28.38;17.75;;;;;;;;;;6160887;23;20005;-91
2024/02/15 14:06:48;;;;;;;24.67;17.60;;;;;;;;;;6160945;23;20005;-91
2024/02/15 14:09:17;;;;;;;27.00;18.65;;;;;;;;;;6161869;23;20012;-90
2024/02/15 14:11:43;;;;;;;29.25;17.60;;;;;;;;;;6160976;23;20070;-90
2024/02/15 14:14:09;;;;;;;27.10;17.33;;;;;;;;;;6186498;23;20016;-91
2024/02/15 14:16:35;;;;;;;27.75;17.88;;;;;;;;;;6160524;23;20001;-91
2024/02/15 14:19:03;;;;;;;29.35;17.83;;;;;;;;;;6159974;23;20105;-92
2024/02/15 14:21:32;;;;;;;27.08;17.73;;;;;;;;;;6161284;23;20336;-90
2024/02/15 14:24:00;;;;;;;26.70;18.60;;;;;;;;;;6160337;23;20016;-90
2024/02/15 14:26:31;;;;;;;27.00;18.73;;;;;;;;;;6162594;23;20016;-90
2024/02/15 14:28:57;;;;;;;30.80;18.50;;;;;;;;;;6162014;23;20005;-92
2024/02/15 14:34:08;;;;;;;27.33;18.00;;;;;;;;;;6188284;23;20394;-90
2024/02/15 14:36:36;;;;;;;24.67;17.15;;;;;;;;;;6161901;23;20405;-91
2024/02/15 14:39:02;;;;;;;25.77;17.85;;;;;;;;;;6162187;23;20005;-91
2024/02/15 14:41:29;;;;;;;27.92;18.52;;;;;;;;;;6161979;23;20005;-92
2024/02/15 14:43:56;;;;;;;24.30;17.50;;;;;;;;;;6162589;23;20005;-91
2024/02/15 14:46:24;;;;;;;24.73;17.67;;;;;;;;;;6161746;23;20021;-91
2024/02/15 14:48:50;;;;;;;27.20;17.50;;;;;;;;;;6161846;23;20005;-91
2024/02/15 14:51:19;;;;;;;29.40;19.38;;;;;;;;;;6162494;23;20487;-92
2024/02/15 14:53:45;;;;;;;29.27;19.35;;;;;;;;;;6161372;23;20010;-92
2024/02/15 14:56:11;;;;;;;27.88;18.80;;;;;;;;;;6161409;23;20005;-91
2024/02/15 14:58:38;;;;;;;25.52;17.13;;;;;;;;;;6162825;23;20056;-91